Time;durP1;ratioP1;P1;durP2;ratioP2;P2;SDS_P1;SDS_P2;PMS_P1;PMS_P2;Temp;Humidity;BMP_temperature;BMP_pressure;BME280_temperature;BME280_humidity;BME280_pressure;Samples;Min_cycle;Max_cycle;Signal;HPM_P1;HPM_P2
2022/09/30 00:02:17;;;;;;;23.33;14.00;;;;;;;17.30;82.20;99770.27;124261;1102;104210;-75
2022/09/30 00:04:49;;;;;;;24.83;14.20;;;;;;;17.28;82.39;99778.22;124225;1102;104347;-74
2022/09/30 00:07:20;;;;;;;24.07;13.97;;;;;;;17.27;82.76;99779.09;124209;1101;104373;-75
2022/09/30 00:09:51;;;;;;;27.20;13.90;;;;;;;17.23;82.41;99775.58;124171;1101;104224;-75
2022/09/30 00:12:22;;;;;;;23.37;14.07;;;;;;;17.20;81.99;99780.89;124187;1102;104316;-74
2022/09/30 00:14:54;;;;;;;25.00;16.23;;;;;;;17.14;82.24;99783.56;124143;1102;102196;-74
2022/09/30 00:17:27;;;;;;;24.00;13.63;;;;;;;17.09;82.36;99792.40;124123;1102;104194;-74
2022/09/30 00:19:58;;;;;;;28.03;15.60;;;;;;;17.03;82.61;99794.19;124222;1100;102851;-75
2022/09/30 00:22:29;;;;;;;25.80;15.20;;;;;;;16.98;82.51;99795.06;124230;1099;104211;-74
2022/09/30 00:25:00;;;;;;;25.60;14.43;;;;;;;16.97;82.77;99801.23;124275;1099;104194;-74
2022/09/30 00:27:31;;;;;;;25.03;15.60;;;;;;;16.94;82.66;99801.24;124197;1099;104299;-74
2022/09/30 00:30:02;;;;;;;27.00;15.00;;;;;;;16.87;82.64;99798.60;124214;1099;103607;-74
2022/09/30 00:32:33;;;;;;;25.77;15.13;;;;;;;16.81;82.99;99798.61;124203;1102;102752;-74
2022/09/30 00:35:05;;;;;;;22.57;13.70;;;;;;;16.74;82.74;99806.56;124266;1102;104224;-74
2022/09/30 00:37:36;;;;;;;24.50;14.73;;;;;;;16.66;82.66;99802.13;124223;1102;104255;-74
2022/09/30 00:40:10;;;;;;;27.13;15.97;;;;;;;16.60;83.34;99806.56;124235;1100;104307;-75
2022/09/30 00:42:43;;;;;;;29.40;16.53;;;;;;;16.53;83.41;99803.00;124209;1102;104239;-74
2022/09/30 00:45:16;;;;;;;27.10;16.00;;;;;;;16.45;83.21;99818.89;124266;1102;104238;-74
2022/09/30 00:47:49;;;;;;;;;;;;;;;16.31;82.70;99825.94;124305;1102;102947;-74
2022/09/30 00:50:33;;;;;;;44.90;14.63;;;;;;;16.18;82.96;99819.75;124215;1102;102800;-74
2022/09/30 00:53:09;;;;;;;37.15;14.40;;;;;;;16.05;83.66;99826.79;124237;1102;102788;-74
2022/09/30 00:55:50;;;;;;;28.33;13.83;;;;;;;15.94;83.72;99823.20;124271;1102;101831;-74
2022/09/30 00:58:28;;;;;;;29.30;14.27;;;;;;;15.87;84.38;99830.25;124232;1102;104169;-75
2022/09/30 01:01:01;;;;;;;34.30;15.20;;;;;;;15.81;84.70;99831.09;124205;1102;102177;-74
2022/09/30 01:03:35;;;;;;;27.75;15.15;;;;;;;15.77;84.64;99831.11;124190;1102;104050;-74
2022/09/30 01:06:04;;;;;;;;;;;;;;;15.72;84.36;99840.73;124255;1102;102884;-74
2022/09/30 01:08:39;;;;;;;24.53;14.90;;;;;;;15.67;83.99;99831.91;124208;1102;104242;-74
2022/09/30 01:11:11;;;;;;;22.93;13.67;;;;;;;15.62;84.01;99834.53;124294;1102;104266;-74
2022/09/30 01:13:44;;;;;;;26.40;14.00;;;;;;;15.62;84.52;99839.81;124238;1102;104428;-74
2022/09/30 01:16:37;;;;;;;22.00;13.65;;;;;;;15.58;84.48;99846.86;124223;1102;102733;-75
2022/09/30 01:19:36;;;;;;;22.63;12.63;;;;;;;15.55;84.36;99856.52;124232;1102;102919;-74
2022/09/30 01:22:31;;;;;;;21.77;13.60;;;;;;;15.52;85.29;99856.50;124209;1102;104165;-75
2022/09/30 01:25:53;;;;;;;21.63;12.93;;;;;;;15.50;84.86;99858.27;124252;1102;104243;-74
2022/09/30 01:28:46;;;;;;;22.97;13.03;;;;;;;15.48;85.65;99857.38;124207;1102;103925;-74
2022/09/30 01:31:31;;;;;;;24.12;13.10;;;;;;;15.44;85.72;99856.46;124195;1102;104150;-74
2022/09/30 01:34:14;;;;;;;21.83;13.37;;;;;;;15.43;86.30;99870.58;124225;1102;104169;-74
2022/09/30 01:36:58;;;;;;;24.67;12.90;;;;;;;15.39;85.33;99874.06;124215;1102;104163;-74
2022/09/30 01:39:42;;;;;;;23.33;13.67;;;;;;;15.36;85.03;99877.56;124250;1102;104239;-74
2022/09/30 01:42:23;;;;;;;27.13;12.30;;;;;;;15.34;85.79;99879.32;124213;1102;104357;-74
2022/09/30 01:45:03;;;;;;;21.43;12.63;;;;;;;15.32;85.98;99882.81;124223;1102;102120;-74
2022/09/30 01:47:41;;;;;;;23.77;12.40;;;;;;;15.28;85.45;99874.87;124271;1102;102798;-74
2022/09/30 01:50:19;;;;;;;22.87;11.43;;;;;;;15.27;85.90;99878.41;124227;1102;104277;-74
2022/09/30 01:52:59;;;;;;;22.77;11.63;;;;;;;15.27;85.51;99881.05;124246;1102;104245;-74
2022/09/30 01:55:36;;;;;;;22.07;11.97;;;;;;;15.30;85.76;99876.64;124240;1099;103273;-74
2022/09/30 01:58:14;;;;;;;20.97;11.87;;;;;;;15.32;85.51;99880.17;124224;1099;104265;-74
2022/09/30 02:00:51;;;;;;;23.40;12.03;;;;;;;15.33;85.81;99885.47;124235;1099;102785;-74
2022/09/30 02:03:30;;;;;;;20.10;11.37;;;;;;;15.34;85.35;99884.61;124210;1100;102313;-73
2022/09/30 02:06:05;;;;;;;32.00;16.13;;;;;;;15.34;86.33;99889.89;124201;1102;104268;-74
2022/09/30 02:08:45;;;;;;;21.90;12.17;;;;;;;15.31;86.07;99889.00;124199;1102;104238;-74
2022/09/30 02:11:22;;;;;;;28.90;12.03;;;;;;;15.27;86.32;99888.11;124178;1102;104303;-74
2022/09/30 02:14:01;;;;;;;58.77;12.87;;;;;;;15.25;86.06;99884.55;124190;1100;104275;-74
2022/09/30 02:16:38;;;;;;;36.60;12.17;;;;;;;15.21;86.38;99888.06;124233;1101;109457;-74
2022/09/30 02:19:19;;;;;;;22.23;12.10;;;;;;;15.18;85.42;99888.91;124242;1099;104268;-74
2022/09/30 02:21:58;;;;;;;18.07;10.83;;;;;;;15.17;86.56;99891.55;124263;1099;104490;-74
2022/09/30 02:24:35;;;;;;;18.57;11.23;;;;;;;15.12;85.74;99894.16;124205;1099;104386;-75
2022/09/30 02:27:11;;;;;;;24.20;11.10;;;;;;;15.08;86.48;99901.19;124185;1101;104240;-74
2022/09/30 02:29:48;;;;;;;32.33;12.27;;;;;;;15.03;85.74;99905.52;124221;1102;104658;-74
2022/09/30 02:32:24;;;;;;;52.40;12.37;;;;;;;14.98;86.74;99904.61;124243;1102;104239;-74
2022/09/30 02:35:00;;;;;;;31.17;11.37;;;;;;;14.99;86.03;99906.39;124261;1102;104262;-74
2022/09/30 02:37:36;;;;;;;38.07;11.73;;;;;;;15.03;86.38;99915.22;124199;1102;102184;-74
2022/09/30 02:40:14;;;;;;;54.47;10.90;;;;;;;15.04;86.47;99923.16;124220;1102;104211;-74
2022/09/30 02:42:48;;;;;;;63.43;11.10;;;;;;;15.07;86.72;99939.03;124236;1102;102383;-74
2022/09/30 02:45:23;;;;;;;61.47;9.83;;;;;;;15.03;86.22;99929.30;124223;1102;104773;-74
2022/09/30 02:48:07;;;;;;;58.43;10.47;;;;;;;15.08;87.11;99939.91;124206;1102;102707;-74
2022/09/30 02:50:47;;;;;;;41.88;8.55;;;;;;;15.00;85.80;99944.25;124265;1102;104043;-74
2022/09/30 02:53:27;;;;;;;78.17;9.90;;;;;;;14.95;86.85;99946.85;124234;1102;102200;-74
2022/09/30 02:56:14;;;;;;;61.23;9.63;;;;;;;14.90;86.79;99945.94;124211;1099;102638;-75
2022/09/30 02:58:47;;;;;;;44.37;10.27;;;;;;;14.87;86.29;99946.78;124233;1099;104235;-74
2022/09/30 03:01:19;;;;;;;74.25;10.50;;;;;;;14.87;86.93;99933.57;124279;1099;104634;-74
2022/09/30 03:03:54;;;;;;;41.83;9.30;;;;;;;14.88;86.16;99942.38;124182;1099;102804;-74
2022/09/30 03:06:25;;;;;;;58.07;10.30;;;;;;;14.85;86.76;99944.98;124231;1099;102856;-74
2022/09/30 03:08:57;;;;;;;53.63;9.93;;;;;;;14.83;86.51;99952.89;124223;1100;104300;-74
2022/09/30 03:11:30;;;;;;;144.03;10.17;;;;;;;14.81;86.78;99959.05;124218;1100;104280;-75
2022/09/30 03:14:30;;;;;;;162.00;10.90;;;;;;;14.77;87.36;99951.96;124248;1100;104258;-74
2022/09/30 03:17:26;;;;;;;32.40;9.13;;;;;;;14.77;86.61;99947.55;124316;1099;102752;-74
2022/09/30 03:20:13;;;;;;;165.80;11.03;;;;;;;14.81;87.03;99956.41;124281;1099;104169;-74
2022/09/30 03:23:03;;;;;;;26.43;9.67;;;;;;;14.86;87.06;99957.33;124258;1099;104693;-74
2022/09/30 03:25:47;;;;;;;16.40;8.80;;;;;;;14.91;87.70;99963.53;124235;1102;104194;-75
2022/09/30 03:28:22;;;;;;;;;;;;;;;14.90;86.91;99960.02;124247;1102;102840;-74
2022/09/30 03:31:01;;;;;;;37.60;8.43;;;;;;;14.88;87.43;99956.48;124256;1102;104667;-74
2022/09/30 03:33:46;;;;;;;89.43;9.17;;;;;;;14.86;87.30;99962.61;124222;1102;104740;-74
2022/09/30 03:36:26;;;;;;;138.53;9.60;;;;;;;14.79;87.18;99958.13;124247;1102;104264;-74
2022/09/30 03:39:06;;;;;;;223.63;10.80;;;;;;;14.71;86.81;99974.80;124225;1102;104173;-74
2022/09/30 03:41:46;;;;;;;98.10;9.63;;;;;;;14.64;86.40;99980.00;124224;1102;104343;-74
2022/09/30 03:44:22;;;;;;;269.93;11.57;;;;;;;14.59;86.77;99984.33;124222;1100;102359;-74
2022/09/30 03:46:57;;;;;;;126.93;9.80;;;;;;;14.57;87.37;99986.95;124241;1099;104197;-74
2022/09/30 03:49:32;;;;;;;75.47;9.03;;;;;;;14.60;87.67;99987.02;124240;1099;104239;-75
2022/09/30 03:52:07;;;;;;;21.57;8.63;;;;;;;14.63;87.35;99980.86;124171;1102;102781;-74
2022/09/30 03:54:49;;;;;;;89.33;9.00;;;;;;;14.68;86.74;99982.69;124212;1102;104195;-73
2022/09/30 03:57:21;;;;;;;150.37;10.30;;;;;;;14.67;87.41;99980.91;124181;1102;102319;-74
2022/09/30 03:59:52;;;;;;;94.67;8.80;;;;;;;14.68;87.65;99990.61;124220;1102;104211;-74
2022/09/30 04:02:23;;;;;;;276.37;11.57;;;;;;;14.68;87.13;99992.38;124260;1102;102913;-73
2022/09/30 04:04:55;;;;;;;181.77;10.30;;;;;;;14.61;87.58;99995.81;124289;1102;104201;-73
2022/09/30 04:07:26;;;;;;;226.73;10.60;;;;;;;14.59;87.65;99992.24;124218;1102;104325;-74
2022/09/30 04:09:57;;;;;;;165.67;10.10;;;;;;;14.59;86.94;99995.76;124189;1102;104223;-74
2022/09/30 04:12:28;;;;;;;173.30;10.10;;;;;;;14.56;87.15;99998.36;124159;1102;104229;-73
2022/09/30 04:15:00;;;;;;;135.83;8.60;;;;;;;14.53;87.87;100003.61;124281;1102;104159;-74
2022/09/30 04:17:31;;;;;;;151.70;9.37;;;;;;;14.49;87.37;100007.06;124303;1102;104181;-75
2022/09/30 04:20:02;;;;;;;267.87;10.90;;;;;;;14.43;87.39;100012.27;124255;1102;104449;-74
2022/09/30 04:22:33;;;;;;;112.07;8.73;;;;;;;14.43;86.95;100014.91;124180;1102;104393;-75
2022/09/30 04:25:05;;;;;;;42.33;9.10;;;;;;;14.48;87.19;100018.52;124251;1102;104175;-75
2022/09/30 04:27:36;;;;;;;130.57;10.07;;;;;;;14.53;87.15;100014.17;124236;1101;104159;-74
2022/09/30 04:30:09;;;;;;;141.40;10.30;;;;;;;14.53;87.89;100011.53;124221;1102;102294;-75
2022/09/30 04:32:44;;;;;;;128.53;9.57;;;;;;;14.51;87.89;100019.43;124240;1102;104255;-74
2022/09/30 04:35:15;;;;;;;180.17;10.27;;;;;;;14.49;87.48;100020.27;124209;1101;104229;-76
2022/09/30 04:37:48;;;;;;;160.57;10.40;;;;;;;14.49;87.57;100021.17;124270;1102;104163;-75
2022/09/30 04:40:19;;;;;;;155.10;9.47;;;;;;;14.52;87.32;100030.86;124308;1102;104496;-75
2022/09/30 04:42:52;;;;;;;63.97;9.03;;;;;;;14.60;87.29;100034.55;124325;1102;102242;-74
2022/09/30 04:45:23;;;;;;;103.37;9.47;;;;;;;14.66;88.42;100024.05;124242;1102;104362;-74
2022/09/30 04:47:54;;;;;;;40.13;8.83;;;;;;;14.72;87.94;100026.77;124232;1102;104178;-74
2022/09/30 04:50:25;;;;;;;64.43;9.20;;;;;;;14.77;87.38;100033.83;124247;1102;104172;-74
2022/09/30 04:52:56;;;;;;;48.17;8.07;;;;;;;14.80;88.12;100042.66;124223;1102;104242;-74
2022/09/30 04:55:27;;;;;;;20.93;8.53;;;;;;;14.87;87.57;100041.00;124223;1102;104338;-75
2022/09/30 04:57:59;;;;;;;54.13;8.80;;;;;;;14.95;87.74;100038.44;124216;1102;102870;-74
2022/09/30 05:00:30;;;;;;;54.93;8.77;;;;;;;14.98;88.07;100039.34;124188;1102;104348;-74
2022/09/30 05:03:02;;;;;;;27.27;9.17;;;;;;;15.01;88.47;100047.30;125055;1102;102213;-74
2022/09/30 05:05:37;;;;;;;17.87;9.20;;;;;;;15.06;88.32;100056.16;124193;1102;102960;-74
2022/09/30 05:08:08;;;;;;;19.50;9.63;;;;;;;15.12;87.59;100060.63;124227;1102;102774;-75
2022/09/30 05:10:39;;;;;;;17.27;8.20;;;;;;;15.14;87.73;100056.23;124237;1102;101892;-75
2022/09/30 05:13:10;;;;;;;17.80;8.80;;;;;;;15.18;88.22;100060.69;124251;1102;104405;-75
2022/09/30 05:15:41;;;;;;;20.63;8.80;;;;;;;15.21;87.56;100063.37;124250;1102;104126;-74
2022/09/30 05:18:13;;;;;;;18.70;9.53;;;;;;;15.22;88.39;100069.53;124237;1102;102848;-75
2022/09/30 05:20:48;;;;;;;30.53;9.17;;;;;;;15.17;87.21;100069.48;124232;1102;104271;-74
2022/09/30 05:23:22;;;;;;;18.20;9.60;;;;;;;15.15;87.61;100070.36;124233;1102;104204;-76
2022/09/30 05:25:54;;;;;;;26.33;10.63;;;;;;;15.13;88.21;100072.98;124293;1102;104399;-75
2022/09/30 05:28:25;;;;;;;39.60;9.80;;;;;;;15.14;88.43;100076.50;124277;1102;104223;-75
2022/09/30 05:30:59;;;;;;;29.83;12.87;;;;;;;15.19;88.58;100090.64;124270;1102;104187;-75
2022/09/30 05:33:34;;;;;;;39.42;11.50;;;;;;;15.21;88.03;100088.92;124268;1102;104169;-76
2022/09/30 05:36:08;;;;;;;62.33;12.77;;;;;;;15.19;88.08;100083.62;124308;1102;104490;-76
2022/09/30 05:38:39;;;;;;;31.27;13.43;;;;;;;15.27;88.57;100088.98;124341;1102;105402;-76
2022/09/30 05:41:13;;;;;;;83.67;14.33;;;;;;;15.30;88.56;100093.39;124221;1102;102857;-75
2022/09/30 05:43:46;;;;;;;29.67;13.20;;;;;;;15.30;88.39;100099.55;124271;1102;104274;-76
2022/09/30 05:46:20;;;;;;;30.17;13.10;;;;;;;15.34;87.85;100098.72;124270;1102;104169;-77
2022/09/30 05:48:54;;;;;;;28.87;13.87;;;;;;;15.39;88.34;100102.29;124311;1102;103225;-77
2022/09/30 05:51:30;;;;;;;31.27;14.77;;;;;;;15.43;88.41;100109.39;124617;1099;104191;-77
2022/09/30 05:54:12;;;;;;;58.87;15.13;;;;;;;15.44;88.36;100111.17;124341;1101;104284;-76
2022/09/30 05:56:47;;;;;;;80.80;15.97;;;;;;;15.41;87.51;100113.79;124364;1099;104188;-75
2022/09/30 05:59:20;;;;;;;44.73;15.40;;;;;;;15.42;88.14;100117.31;124264;1102;102778;-75
2022/09/30 06:01:52;;;;;;;42.40;16.43;;;;;;;15.43;88.34;100122.61;124192;1102;104162;-75
2022/09/30 06:04:23;;;;;;;33.17;15.40;;;;;;;15.49;88.62;100116.51;124193;1102;102791;-75
2022/09/30 06:06:57;;;;;;;28.20;15.90;;;;;;;15.61;88.35;100121.91;124183;1102;103427;-76
2022/09/30 06:09:29;;;;;;;23.25;13.95;;;;;;;15.79;88.58;100117.68;124242;1102;104220;-76
2022/09/30 06:12:02;;;;;;;28.20;15.60;;;;;;;15.96;89.12;100120.47;124296;1100;104188;-76
2022/09/30 06:14:34;;;;;;;27.93;15.50;;;;;;;16.12;89.15;100132.04;124292;1100;102117;-75
2022/09/30 06:17:07;;;;;;;26.50;14.53;;;;;;;16.24;89.22;100132.13;124209;1102;104258;-76
2022/09/30 06:19:40;;;;;;;28.10;14.00;;;;;;;16.40;88.90;100138.40;124238;1102;104156;-76
2022/09/30 06:22:11;;;;;;;26.27;14.70;;;;;;;16.51;89.00;100134.05;124203;1102;104185;-75
2022/09/30 06:24:45;;;;;;;28.00;14.45;;;;;;;16.62;88.39;100142.05;124205;1102;104220;-76
2022/09/30 06:27:17;;;;;;;27.83;15.97;;;;;;;16.69;88.72;100145.64;124233;1102;102560;-76
2022/09/30 06:29:49;;;;;;;26.43;14.77;;;;;;;16.71;88.75;100146.52;124215;1101;104089;-76
2022/09/30 06:32:32;;;;;;;25.07;14.30;;;;;;;16.68;87.98;100149.16;124310;1102;102327;-75
2022/09/30 06:35:03;;;;;;;26.87;15.00;;;;;;;16.63;87.98;100156.20;124295;1102;104271;-75
2022/09/30 06:37:35;;;;;;;26.50;14.47;;;;;;;16.60;87.89;100148.23;124320;1102;102303;-74
2022/09/30 06:40:11;;;;;;;25.77;14.63;;;;;;;16.58;87.93;100147.32;124283;1102;104175;-74
2022/09/30 06:42:43;;;;;;;26.30;15.20;;;;;;;16.53;88.08;100155.23;125057;1102;102126;-75
2022/09/30 06:45:17;;;;;;;27.77;14.20;;;;;;;16.57;88.10;100157.04;124278;1102;104238;-75
2022/09/30 06:47:56;;;;;;;25.50;14.00;;;;;;;16.62;87.74;100152.64;124314;1102;103532;-75
2022/09/30 06:50:32;;;;;;;27.17;14.90;;;;;;;16.62;87.99;100147.34;124298;1102;101913;-76
2022/09/30 06:53:08;;;;;;;27.80;15.83;;;;;;;16.69;87.87;100159.76;124297;1102;104278;-76
2022/09/30 06:55:40;;;;;;;26.03;15.10;;;;;;;16.74;87.63;100159.78;124272;1102;104284;-76
2022/09/30 06:58:16;;;;;;;25.47;15.27;;;;;;;16.75;88.16;100166.86;124272;1102;104230;-75
2022/09/30 07:00:56;;;;;;;25.70;15.53;;;;;;;16.84;87.96;100169.56;125091;1102;104198;-76
2022/09/30 07:03:33;;;;;;;29.93;15.57;;;;;;;16.98;87.79;100168.75;124342;1102;102754;-76
2022/09/30 07:06:07;;;;;;;23.60;14.50;;;;;;;17.05;87.30;100165.27;124340;1102;104175;-76
2022/09/30 07:08:39;;;;;;;23.23;14.27;;;;;;;17.11;87.60;100178.54;124250;1102;102671;-76
2022/09/30 07:11:14;;;;;;;26.00;14.23;;;;;;;17.23;87.77;100189.19;124246;1102;104163;-76
2022/09/30 07:13:52;;;;;;;23.70;14.30;;;;;;;17.36;87.29;100191.88;124341;1102;104239;-76
2022/09/30 07:16:34;;;;;;;21.47;13.67;;;;;;;17.48;87.56;100193.67;124405;1102;102143;-76
2022/09/30 07:19:08;;;;;;;21.73;13.23;;;;;;;17.54;87.25;100205.17;124319;1102;104162;-77
2022/09/30 07:21:40;;;;;;;25.30;14.10;;;;;;;17.63;87.14;100195.48;124405;1102;104355;-76
2022/09/30 07:24:15;;;;;;;28.87;15.63;;;;;;;17.71;87.32;100207.86;124347;1102;104187;-76
2022/09/30 07:26:47;;;;;;;29.17;17.03;;;;;;;17.81;87.52;100208.78;124354;1102;102778;-76
2022/09/30 07:29:30;;;;;;;27.32;16.30;;;;;;;17.90;87.44;100205.27;124334;1102;102531;-76
2022/09/30 07:32:07;;;;;;;28.47;15.83;;;;;;;18.01;87.34;100205.28;124335;1102;102842;-76
2022/09/30 07:34:43;;;;;;;25.53;15.43;;;;;;;18.11;87.33;100204.41;124311;1102;103728;-79
2022/09/30 07:37:17;;;;;;;33.63;20.73;;;;;;;18.23;87.07;100199.10;125103;1102;101990;-76
2022/09/30 07:39:53;;;;;;;27.67;16.27;;;;;;;18.33;87.33;100203.50;124462;1102;104225;-76
2022/09/30 07:42:24;;;;;;;25.53;16.63;;;;;;;18.42;86.73;100202.62;124288;1102;104610;-76
2022/09/30 07:44:55;;;;;;;24.43;14.60;;;;;;;18.49;86.88;100209.67;124327;1102;104229;-76
2022/09/30 07:47:27;;;;;;;24.50;15.30;;;;;;;18.49;85.70;100203.48;124843;1102;102397;-76
2022/09/30 07:50:09;;;;;;;24.43;14.43;;;;;;;18.54;85.94;100209.66;125936;1100;102231;-76
2022/09/30 07:53:12;;;;;;;22.03;13.57;;;;;;;18.67;85.90;100213.21;124412;1102;102890;-76
2022/09/30 07:55:56;;;;;;;24.63;13.90;;;;;;;18.85;86.24;100210.55;124973;1102;104254;-75
2022/09/30 07:58:28;;;;;;;22.47;13.20;;;;;;;19.02;85.92;100207.80;124378;1102;104265;-76
2022/09/30 08:01:05;;;;;;;21.60;13.00;;;;;;;19.08;85.26;100211.34;124257;1102;104236;-77
2022/09/30 08:03:43;;;;;;;25.33;12.97;;;;;;;19.15;84.90;100216.64;124226;1102;102813;-76
2022/09/30 08:06:19;;;;;;;22.90;12.17;;;;;;;19.26;85.66;100211.28;124305;1103;104166;-77
2022/09/30 08:08:55;;;;;;;19.63;11.20;;;;;;;19.35;84.36;100210.33;124380;1102;104169;-75
2022/09/30 08:11:29;;;;;;;20.43;10.57;;;;;;;19.46;84.25;100208.52;124323;1102;104303;-75
2022/09/30 08:14:00;;;;;;;18.53;10.57;;;;;;;19.57;84.83;100208.43;124512;1102;102115;-75
2022/09/30 08:16:37;;;;;;;19.53;9.70;;;;;;;19.71;84.71;100206.59;124386;1102;102803;-76
2022/09/30 08:19:14;;;;;;;18.93;10.03;;;;;;;19.88;84.62;100208.27;124292;1102;104184;-76
2022/09/30 08:21:47;;;;;;;17.63;8.47;;;;;;;19.98;84.09;100209.11;124498;1102;102287;-76
2022/09/30 08:24:20;;;;;;;26.27;9.37;;;;;;;20.08;83.33;100206.33;124398;1102;104229;-75
2022/09/30 08:26:53;;;;;;;16.52;8.88;;;;;;;20.15;83.02;100196.53;124288;1102;104099;-75
2022/09/30 08:29:24;;;;;;;20.50;10.55;;;;;;;20.26;82.66;100213.30;124311;1102;102162;-75
2022/09/30 08:31:55;;;;;;;19.80;11.03;;;;;;;20.40;83.12;100213.18;124337;1101;105742;-75
2022/09/30 08:34:32;;;;;;;20.00;11.23;;;;;;;20.55;82.42;100212.13;124347;1102;104229;-75
2022/09/30 08:37:08;;;;;;;20.13;10.57;;;;;;;20.70;82.56;100203.14;124317;1102;102217;-77
2022/09/30 08:39:47;;;;;;;24.13;11.07;;;;;;;20.85;82.42;100207.44;124287;1100;104162;-76
2022/09/30 08:42:37;;;;;;;22.10;11.37;;;;;;;20.91;80.94;100206.46;124250;1102;104189;-76
2022/09/30 08:45:20;;;;;;;24.17;10.93;;;;;;;21.01;80.26;100209.01;124328;1102;103604;-76
2022/09/30 08:48:06;;;;;;;22.23;11.83;;;;;;;21.12;81.16;100211.55;124460;1102;104271;-75
2022/09/30 08:51:19;;;;;;;21.10;11.63;;;;;;;21.20;78.73;100206.12;124465;1102;104261;-75
2022/09/30 08:53:55;;;;;;;21.70;11.40;;;;;;;21.25;78.25;100206.06;124373;1102;102044;-77
2022/09/30 08:56:30;;;;;;;18.97;10.20;;;;;;;21.35;79.41;100210.39;124314;1102;102831;-78
2022/09/30 08:59:09;;;;;;;20.23;11.17;;;;;;;21.50;78.30;100204.88;124338;1102;104178;-78
2022/09/30 09:01:48;;;;;;;22.17;10.70;;;;;;;21.66;78.41;100205.53;124336;1102;104223;-77
2022/09/30 09:04:22;;;;;;;21.33;10.40;;;;;;;21.73;78.16;100211.66;124249;1102;117728;-78
2022/09/30 09:07:09;;;;;;;20.00;9.53;;;;;;;21.82;77.83;100208.84;124250;1102;104147;-77
2022/09/30 09:10:00;;;;;;;20.97;9.77;;;;;;;21.92;77.18;100214.05;124278;1102;104210;-77
2022/09/30 09:12:45;;;;;;;18.33;8.93;;;;;;;22.01;76.79;100212.10;124248;1102;102650;-77
2022/09/30 09:15:35;;;;;;;20.27;9.70;;;;;;;22.08;76.46;100216.45;124360;1102;104217;-75
2022/09/30 09:18:40;;;;;;;24.70;9.10;;;;;;;22.16;75.47;100210.98;124356;1102;102835;-74
2022/09/30 09:21:46;;;;;;;18.40;7.60;;;;;;;22.28;75.20;100207.20;124238;1102;104181;-77
2022/09/30 09:24:27;;;;;;;21.67;8.53;;;;;;;22.34;74.56;100214.28;125583;1102;101953;-76
2022/09/30 09:27:13;;;;;;;18.63;8.30;;;;;;;22.32;72.80;100216.98;124378;1102;104286;-75
2022/09/30 09:30:05;;;;;;;18.07;7.80;;;;;;;22.47;73.79;100220.28;124313;1102;103251;-76
2022/09/30 09:32:39;;;;;;;19.30;7.67;;;;;;;22.58;74.10;100218.33;124318;1102;102238;-77
2022/09/30 09:35:23;;;;;;;18.00;8.20;;;;;;;22.68;73.53;100219.90;124277;1100;108127;-76
2022/09/30 09:41:05;;;;;;;20.67;7.60;;;;;;;22.93;72.94;100214.08;124285;1101;104197;-75
2022/09/30 09:43:47;;;;;;;15.00;6.73;;;;;;;23.13;73.03;100211.04;124305;1103;103582;-74
2022/09/30 09:46:26;;;;;;;16.47;6.73;;;;;;;23.31;72.13;100218.69;124379;1102;104332;-74
2022/09/30 09:49:31;;;;;;;18.20;7.63;;;;;;;23.47;72.38;100215.68;124284;1102;104361;-75
2022/09/30 09:52:27;;;;;;;20.10;7.37;;;;;;;23.61;71.74;100224.28;126154;1102;102724;-75
2022/09/30 09:55:03;;;;;;;17.17;6.67;;;;;;;23.78;71.37;100212.28;124203;1102;104230;-76
2022/09/30 09:57:38;;;;;;;20.57;7.40;;;;;;;23.84;71.11;100209.48;124429;1102;104214;-77
2022/09/30 10:03:21;;;;;;;17.57;7.60;;;;;;;23.84;70.14;100215.75;124358;1102;102621;-78
2022/09/30 10:06:06;;;;;;;16.10;6.93;;;;;;;23.89;69.80;100212.96;124332;1102;104249;-77
2022/09/30 10:08:53;;;;;;;15.70;6.58;;;;;;;24.03;70.19;100210.82;124387;1102;104274;-77
2022/09/30 10:11:35;;;;;;;21.37;7.40;;;;;;;24.18;69.64;100205.99;124224;1102;104248;-78
2022/09/30 10:14:20;;;;;;;15.00;5.70;;;;;;;24.30;68.76;100203.00;124238;1102;104286;-77
2022/09/30 10:17:00;;;;;;;14.47;6.00;;;;;;;24.29;67.70;100206.59;124145;1102;104269;-77
2022/09/30 10:19:34;;;;;;;16.50;5.97;;;;;;;24.30;67.91;100208.36;124309;1102;104191;-77
2022/09/30 10:25:22;;;;;;;23.63;7.40;;;;;;;24.36;67.07;100208.20;124397;1102;104051;-76
2022/09/30 10:27:57;;;;;;;16.00;6.00;;;;;;;24.38;66.01;100208.16;124287;1102;102897;-75
2022/09/30 10:30:46;;;;;;;16.63;6.30;;;;;;;24.42;65.28;100215.22;124269;1102;101786;-75
2022/09/30 10:33:23;;;;;;;18.27;5.57;;;;;;;24.49;65.33;100211.44;124219;1102;104173;-75
2022/09/30 10:36:11;;;;;;;16.70;6.10;;;;;;;24.56;65.12;100223.78;124219;1102;104596;-77
2022/09/30 10:42:19;;;;;;;16.50;5.37;;;;;;;24.80;64.07;100207.09;124127;1102;104166;-76
2022/09/30 10:45:09;;;;;;;11.87;5.20;;;;;;;24.93;63.57;100200.44;124404;1099;101922;-76
2022/09/30 10:48:00;;;;;;;17.43;5.63;;;;;;;25.02;63.57;100202.86;124336;1099;102055;-76
2022/09/30 10:50:31;;;;;;;13.13;5.47;;;;;;;25.09;63.17;100196.41;124792;1099;104297;-77
2022/09/30 10:53:19;;;;;;;14.13;5.57;;;;;;;25.17;63.03;100203.37;124398;1099;104175;-75
2022/09/30 10:55:59;;;;;;;;;;;;;;;25.23;62.74;100195.13;126027;1098;102447;-75
2022/09/30 10:58:59;;;;;;;11.73;3.77;;;;;;;25.29;62.66;100197.63;125618;1099;104252;-77
2022/09/30 11:02:05;;;;;;;;;;;;;;;;;;;;;
2022/09/30 11:04:49;;;;;;;7.57;2.37;;;;;;;25.35;60.81;100188.53;124432;1101;104178;-77
2022/09/30 11:07:31;;;;;;;6.10;2.50;;;;;;;25.42;60.51;100190.98;124831;1099;102819;-76
2022/09/30 11:10:26;;;;;;;6.87;2.20;;;;;;;25.50;59.86;100192.56;125940;1098;104156;-76
2022/09/30 11:13:07;;;;;;;2.83;2.20;;;;;;;25.55;59.28;100186.09;124392;1099;102091;-76
2022/09/30 11:15:45;;;;;;;4.77;1.90;;;;;;;25.62;58.19;100184.99;124959;1099;103714;-76
2022/09/30 11:18:29;;;;;;;5.17;2.30;;;;;;;25.67;57.89;100195.59;124793;1099;104239;-76
2022/09/30 11:21:16;;;;;;;3.97;2.17;;;;;;;25.75;56.60;100196.22;124825;1099;104274;-75
2022/09/30 11:23:53;;;;;;;5.15;1.85;;;;;;;25.78;56.96;100198.81;124752;1099;101870;-75
2022/09/30 11:26:39;;;;;;;3.23;1.90;;;;;;;25.84;57.34;100201.30;124742;1099;104260;-77
2022/09/30 11:29:42;;;;;;;2.10;1.80;;;;;;;25.89;56.83;100202.97;124318;1099;104172;-78
2022/09/30 11:32:30;;;;;;;3.50;2.10;;;;;;;25.89;55.80;100194.91;124822;1103;101922;-78
2022/09/30 11:35:19;;;;;;;6.20;2.10;;;;;;;25.91;55.14;100191.22;124997;1099;103092;-78
2022/09/30 11:38:14;;;;;;;4.77;2.20;;;;;;;25.95;55.32;100194.71;125551;1099;108062;-77
2022/09/30 11:41:08;;;;;;;3.87;2.27;;;;;;;25.98;54.68;100186.58;124565;1099;102267;-76
2022/09/30 11:44:00;;;;;;;3.20;2.30;;;;;;;26.00;54.11;100192.77;126576;1099;104175;-76
2022/09/30 11:47:03;;;;;;;4.47;2.40;;;;;;;26.00;54.26;100193.64;125083;1099;102208;-77
2022/09/30 11:50:04;;;;;;;4.93;2.53;;;;;;;25.94;53.90;100190.25;125053;1098;102938;-77
2022/09/30 11:52:45;;;;;;;4.40;2.70;;;;;;;25.79;52.99;100186.27;124463;1099;102416;-75
2022/09/30 11:55:40;;;;;;;7.57;2.50;;;;;;;25.70;52.85;100183.88;124893;1099;104249;-75
2022/09/30 11:58:25;;;;;;;5.20;2.70;;;;;;;25.58;53.20;100191.38;124396;1099;118964;-75
2022/09/30 12:01:06;;;;;;;4.93;2.03;;;;;;;25.58;52.52;100188.69;124740;1099;104334;-75
2022/09/30 12:03:46;;;;;;;4.50;1.80;;;;;;;25.57;51.89;100192.33;124964;1099;104178;-74
2022/09/30 12:06:33;;;;;;;4.10;2.30;;;;;;;25.57;51.68;100197.70;124884;1099;103206;-75